<?xml version="1.0" encoding="UTF-8" standalone="no" ?>
<gpx xmlns="http://www.topografix.com/GPX/1/1" xmlns:xsi="http://www.w3.org/2001/XMLSchema-instance" xsi:schemaLocation="http://www.topografix.com/GPX/1/1 http://www.topografix.com/GPX/1/1/gpx.xsd" version="1.1" creator="VisuGPX - https://www.visugpx.com">
  <metadata>
    <name>La pointe des Avers</name>
    <desc><![CDATA[Sortie ski de rando Ceillace  départ de le bois noir,
monter dans le bois, puis suivr direction le sommet.
descente même traçe.]]></desc>
  </metadata>
  <trk>
    <name><![CDATA[OR-6885329--Ceillac:La Pointe des Avers]]></name>
    <trkseg>
      <trkpt lat="44.65819" lon="6.84481">
        <ele>2028</ele>
        <time>2016-12-26T10:30:41Z</time>
      </trkpt>
      <trkpt lat="44.65798" lon="6.84494">
        <ele>2028</ele>
        <time>2016-12-26T10:32:41Z</time>
      </trkpt>
      <trkpt lat="44.65781" lon="6.84516">
        <ele>2029</ele>
        <time>2016-12-26T10:34:41Z</time>
      </trkpt>
      <trkpt lat="44.65769" lon="6.84536">
        <ele>2030</ele>
        <time>2016-12-26T10:36:41Z</time>
      </trkpt>
      <trkpt lat="44.65756" lon="6.84564">
        <ele>2032</ele>
        <time>2016-12-26T10:38:41Z</time>
      </trkpt>
      <trkpt lat="44.65734" lon="6.84591">
        <ele>2035</ele>
        <time>2016-12-26T10:40:41Z</time>
      </trkpt>
      <trkpt lat="44.65724" lon="6.84606">
        <ele>2037</ele>
        <time>2016-12-26T10:42:41Z</time>
      </trkpt>
      <trkpt lat="44.65708" lon="6.8462">
        <ele>2038</ele>
        <time>2016-12-26T10:44:41Z</time>
      </trkpt>
      <trkpt lat="44.65689" lon="6.84657">
        <ele>2041</ele>
        <time>2016-12-26T10:46:41Z</time>
      </trkpt>
      <trkpt lat="44.65682" lon="6.84697">
        <ele>2046</ele>
        <time>2016-12-26T10:48:41Z</time>
      </trkpt>
      <trkpt lat="44.65673" lon="6.84728">
        <ele>2050</ele>
        <time>2016-12-26T10:50:41Z</time>
      </trkpt>
      <trkpt lat="44.65655" lon="6.84765">
        <ele>2055</ele>
        <time>2016-12-26T10:52:41Z</time>
      </trkpt>
      <trkpt lat="44.65643" lon="6.84798">
        <ele>2059</ele>
        <time>2016-12-26T10:54:41Z</time>
      </trkpt>
      <trkpt lat="44.65625" lon="6.84848">
        <ele>2065</ele>
        <time>2016-12-26T10:56:41Z</time>
      </trkpt>
      <trkpt lat="44.65608" lon="6.84872">
        <ele>2067</ele>
        <time>2016-12-26T10:58:41Z</time>
      </trkpt>
      <trkpt lat="44.65599" lon="6.84906">
        <ele>2071</ele>
        <time>2016-12-26T11:00:41Z</time>
      </trkpt>
      <trkpt lat="44.65608" lon="6.84932">
        <ele>2075</ele>
        <time>2016-12-26T11:02:41Z</time>
      </trkpt>
      <trkpt lat="44.65585" lon="6.85029">
        <ele>2086</ele>
        <time>2016-12-26T11:04:41Z</time>
      </trkpt>
      <trkpt lat="44.65571" lon="6.85062">
        <ele>2088</ele>
        <time>2016-12-26T11:06:41Z</time>
      </trkpt>
      <trkpt lat="44.65567" lon="6.85099">
        <ele>2092</ele>
        <time>2016-12-26T11:08:41Z</time>
      </trkpt>
      <trkpt lat="44.65581" lon="6.85113">
        <ele>2096</ele>
        <time>2016-12-26T11:10:41Z</time>
      </trkpt>
      <trkpt lat="44.65597" lon="6.85131">
        <ele>2101</ele>
        <time>2016-12-26T11:12:41Z</time>
      </trkpt>
      <trkpt lat="44.65593" lon="6.85154">
        <ele>2104</ele>
        <time>2016-12-26T11:14:41Z</time>
      </trkpt>
      <trkpt lat="44.65564" lon="6.8518">
        <ele>2104</ele>
        <time>2016-12-26T11:16:41Z</time>
      </trkpt>
      <trkpt lat="44.65571" lon="6.85207">
        <ele>2112</ele>
        <time>2016-12-26T11:18:41Z</time>
      </trkpt>
      <trkpt lat="44.65571" lon="6.85231">
        <ele>2117</ele>
        <time>2016-12-26T11:20:41Z</time>
      </trkpt>
      <trkpt lat="44.65577" lon="6.85241">
        <ele>2121</ele>
        <time>2016-12-26T11:22:41Z</time>
      </trkpt>
      <trkpt lat="44.65583" lon="6.85244">
        <ele>2123</ele>
        <time>2016-12-26T11:24:41Z</time>
      </trkpt>
      <trkpt lat="44.65586" lon="6.85266">
        <ele>2128</ele>
        <time>2016-12-26T11:26:41Z</time>
      </trkpt>
      <trkpt lat="44.65567" lon="6.85308">
        <ele>2135</ele>
        <time>2016-12-26T11:28:41Z</time>
      </trkpt>
      <trkpt lat="44.65578" lon="6.85328">
        <ele>2142</ele>
        <time>2016-12-26T11:30:41Z</time>
      </trkpt>
      <trkpt lat="44.6555" lon="6.85408">
        <ele>2160</ele>
        <time>2016-12-26T11:32:41Z</time>
      </trkpt>
      <trkpt lat="44.6557" lon="6.85426">
        <ele>2171</ele>
        <time>2016-12-26T11:34:41Z</time>
      </trkpt>
      <trkpt lat="44.65529" lon="6.85488">
        <ele>2194</ele>
        <time>2016-12-26T11:36:41Z</time>
      </trkpt>
      <trkpt lat="44.65536" lon="6.85488">
        <ele>2195</ele>
        <time>2016-12-26T11:38:41Z</time>
      </trkpt>
      <trkpt lat="44.655" lon="6.85531">
        <ele>2209</ele>
        <time>2016-12-26T11:40:41Z</time>
      </trkpt>
      <trkpt lat="44.65456" lon="6.85579">
        <ele>2217</ele>
        <time>2016-12-26T11:42:41Z</time>
      </trkpt>
      <trkpt lat="44.6543" lon="6.85614">
        <ele>2222</ele>
        <time>2016-12-26T11:44:41Z</time>
      </trkpt>
      <trkpt lat="44.65363" lon="6.85722">
        <ele>2241</ele>
        <time>2016-12-26T11:46:41Z</time>
      </trkpt>
      <trkpt lat="44.65345" lon="6.85763">
        <ele>2250</ele>
        <time>2016-12-26T11:48:41Z</time>
      </trkpt>
      <trkpt lat="44.65348" lon="6.85784">
        <ele>2259</ele>
        <time>2016-12-26T11:50:41Z</time>
      </trkpt>
      <trkpt lat="44.65337" lon="6.85808">
        <ele>2263</ele>
        <time>2016-12-26T11:52:41Z</time>
      </trkpt>
      <trkpt lat="44.65327" lon="6.85812">
        <ele>2261</ele>
        <time>2016-12-26T11:54:41Z</time>
      </trkpt>
      <trkpt lat="44.65288" lon="6.8586">
        <ele>2268</ele>
        <time>2016-12-26T11:56:41Z</time>
      </trkpt>
      <trkpt lat="44.65225" lon="6.85954">
        <ele>2279</ele>
        <time>2016-12-26T11:58:41Z</time>
      </trkpt>
      <trkpt lat="44.6526" lon="6.85939">
        <ele>2284</ele>
        <time>2016-12-26T12:00:41Z</time>
      </trkpt>
      <trkpt lat="44.65251" lon="6.85959">
        <ele>2288</ele>
        <time>2016-12-26T12:02:41Z</time>
      </trkpt>
      <trkpt lat="44.65291" lon="6.85953">
        <ele>2300</ele>
        <time>2016-12-26T12:04:41Z</time>
      </trkpt>
      <trkpt lat="44.65256" lon="6.86015">
        <ele>2310</ele>
        <time>2016-12-26T12:06:41Z</time>
      </trkpt>
      <trkpt lat="44.6526" lon="6.86029">
        <ele>2316</ele>
        <time>2016-12-26T12:08:41Z</time>
      </trkpt>
      <trkpt lat="44.65334" lon="6.86062">
        <ele>2343</ele>
        <time>2016-12-26T12:10:41Z</time>
      </trkpt>
      <trkpt lat="44.65324" lon="6.86099">
        <ele>2349</ele>
        <time>2016-12-26T12:12:41Z</time>
      </trkpt>
      <trkpt lat="44.65334" lon="6.86105">
        <ele>2352</ele>
        <time>2016-12-26T12:14:41Z</time>
      </trkpt>
      <trkpt lat="44.65379" lon="6.86104">
        <ele>2361</ele>
        <time>2016-12-26T12:16:41Z</time>
      </trkpt>
      <trkpt lat="44.65395" lon="6.86113">
        <ele>2366</ele>
        <time>2016-12-26T12:18:41Z</time>
      </trkpt>
      <trkpt lat="44.65386" lon="6.86145">
        <ele>2372</ele>
        <time>2016-12-26T12:20:41Z</time>
      </trkpt>
      <trkpt lat="44.65405" lon="6.8615">
        <ele>2377</ele>
        <time>2016-12-26T12:22:41Z</time>
      </trkpt>
      <trkpt lat="44.65415" lon="6.86159">
        <ele>2382</ele>
        <time>2016-12-26T12:24:41Z</time>
      </trkpt>
      <trkpt lat="44.65424" lon="6.86158">
        <ele>2383</ele>
        <time>2016-12-26T12:26:41Z</time>
      </trkpt>
      <trkpt lat="44.65422" lon="6.86171">
        <ele>2386</ele>
        <time>2016-12-26T12:28:41Z</time>
      </trkpt>
      <trkpt lat="44.65427" lon="6.86175">
        <ele>2387</ele>
        <time>2016-12-26T12:30:41Z</time>
      </trkpt>
      <trkpt lat="44.65425" lon="6.8619">
        <ele>2391</ele>
        <time>2016-12-26T12:32:41Z</time>
      </trkpt>
      <trkpt lat="44.65444" lon="6.86169">
        <ele>2387</ele>
        <time>2016-12-26T12:34:41Z</time>
      </trkpt>
      <trkpt lat="44.65449" lon="6.86178">
        <ele>2390</ele>
        <time>2016-12-26T12:36:41Z</time>
      </trkpt>
      <trkpt lat="44.65451" lon="6.86204">
        <ele>2397</ele>
        <time>2016-12-26T12:38:41Z</time>
      </trkpt>
      <trkpt lat="44.65483" lon="6.86266">
        <ele>2415</ele>
        <time>2016-12-26T12:40:41Z</time>
      </trkpt>
      <trkpt lat="44.65508" lon="6.86286">
        <ele>2422</ele>
        <time>2016-12-26T12:42:41Z</time>
      </trkpt>
      <trkpt lat="44.65524" lon="6.8632">
        <ele>2431</ele>
        <time>2016-12-26T12:44:41Z</time>
      </trkpt>
      <trkpt lat="44.65568" lon="6.86373">
        <ele>2446</ele>
        <time>2016-12-26T12:46:41Z</time>
      </trkpt>
      <trkpt lat="44.6557" lon="6.86395">
        <ele>2451</ele>
        <time>2016-12-26T12:48:41Z</time>
      </trkpt>
      <trkpt lat="44.65549" lon="6.86443">
        <ele>2460</ele>
        <time>2016-12-26T12:50:41Z</time>
      </trkpt>
      <trkpt lat="44.65522" lon="6.86492">
        <ele>2468</ele>
        <time>2016-12-26T12:52:41Z</time>
      </trkpt>
      <trkpt lat="44.65498" lon="6.86536">
        <ele>2477</ele>
        <time>2016-12-26T12:54:41Z</time>
      </trkpt>
      <trkpt lat="44.65495" lon="6.86556">
        <ele>2481</ele>
        <time>2016-12-26T12:56:41Z</time>
      </trkpt>
      <trkpt lat="44.655" lon="6.86602">
        <ele>2488</ele>
        <time>2016-12-26T12:58:41Z</time>
      </trkpt>
      <trkpt lat="44.6552" lon="6.86665">
        <ele>2487</ele>
        <time>2016-12-26T13:00:41Z</time>
      </trkpt>
      <trkpt lat="44.65538" lon="6.86695">
        <ele>2490</ele>
        <time>2016-12-26T13:02:41Z</time>
      </trkpt>
      <trkpt lat="44.65555" lon="6.86715">
        <ele>2493</ele>
        <time>2016-12-26T13:04:41Z</time>
      </trkpt>
      <trkpt lat="44.6557" lon="6.86726">
        <ele>2496</ele>
        <time>2016-12-26T13:06:41Z</time>
      </trkpt>
      <trkpt lat="44.65591" lon="6.86734">
        <ele>2498</ele>
        <time>2016-12-26T13:08:41Z</time>
      </trkpt>
      <trkpt lat="44.65597" lon="6.8674">
        <ele>2499</ele>
        <time>2016-12-26T13:10:41Z</time>
      </trkpt>
      <trkpt lat="44.65606" lon="6.86818">
        <ele>2508</ele>
        <time>2016-12-26T13:12:41Z</time>
      </trkpt>
      <trkpt lat="44.65612" lon="6.86834">
        <ele>2511</ele>
        <time>2016-12-26T13:14:41Z</time>
      </trkpt>
      <trkpt lat="44.65611" lon="6.86849">
        <ele>2513</ele>
        <time>2016-12-26T13:16:41Z</time>
      </trkpt>
      <trkpt lat="44.65601" lon="6.8687">
        <ele>2516</ele>
        <time>2016-12-26T13:18:41Z</time>
      </trkpt>
      <trkpt lat="44.6561" lon="6.86889">
        <ele>2520</ele>
        <time>2016-12-26T13:20:41Z</time>
      </trkpt>
      <trkpt lat="44.65619" lon="6.86905">
        <ele>2523</ele>
        <time>2016-12-26T13:22:41Z</time>
      </trkpt>
      <trkpt lat="44.65625" lon="6.86929">
        <ele>2528</ele>
        <time>2016-12-26T13:24:41Z</time>
      </trkpt>
      <trkpt lat="44.65624" lon="6.86953">
        <ele>2532</ele>
        <time>2016-12-26T13:26:41Z</time>
      </trkpt>
      <trkpt lat="44.65643" lon="6.87034">
        <ele>2544</ele>
        <time>2016-12-26T13:28:41Z</time>
      </trkpt>
      <trkpt lat="44.6564" lon="6.87065">
        <ele>2546</ele>
        <time>2016-12-26T13:30:41Z</time>
      </trkpt>
      <trkpt lat="44.65653" lon="6.87125">
        <ele>2554</ele>
        <time>2016-12-26T13:32:41Z</time>
      </trkpt>
      <trkpt lat="44.65673" lon="6.87262">
        <ele>2575</ele>
        <time>2016-12-26T13:34:41Z</time>
      </trkpt>
      <trkpt lat="44.65658" lon="6.873">
        <ele>2581</ele>
        <time>2016-12-26T13:36:41Z</time>
      </trkpt>
      <trkpt lat="44.65684" lon="6.87329">
        <ele>2588</ele>
        <time>2016-12-26T13:38:41Z</time>
      </trkpt>
      <trkpt lat="44.65676" lon="6.8736">
        <ele>2594</ele>
        <time>2016-12-26T13:40:41Z</time>
      </trkpt>
      <trkpt lat="44.65683" lon="6.87384">
        <ele>2599</ele>
        <time>2016-12-26T13:42:41Z</time>
      </trkpt>
      <trkpt lat="44.65677" lon="6.87417">
        <ele>2605</ele>
        <time>2016-12-26T13:44:41Z</time>
      </trkpt>
      <trkpt lat="44.65675" lon="6.87452">
        <ele>2613</ele>
        <time>2016-12-26T13:46:41Z</time>
      </trkpt>
      <trkpt lat="44.65705" lon="6.87469">
        <ele>2618</ele>
        <time>2016-12-26T13:48:41Z</time>
      </trkpt>
      <trkpt lat="44.65708" lon="6.87478">
        <ele>2621</ele>
        <time>2016-12-26T13:50:41Z</time>
      </trkpt>
      <trkpt lat="44.65701" lon="6.87538">
        <ele>2634</ele>
        <time>2016-12-26T13:52:41Z</time>
      </trkpt>
      <trkpt lat="44.65704" lon="6.87561">
        <ele>2640</ele>
        <time>2016-12-26T13:54:41Z</time>
      </trkpt>
      <trkpt lat="44.65721" lon="6.87582">
        <ele>2645</ele>
        <time>2016-12-26T13:56:41Z</time>
      </trkpt>
      <trkpt lat="44.65725" lon="6.87614">
        <ele>2653</ele>
        <time>2016-12-26T13:58:41Z</time>
      </trkpt>
      <trkpt lat="44.65712" lon="6.87642">
        <ele>2658</ele>
        <time>2016-12-26T14:00:41Z</time>
      </trkpt>
      <trkpt lat="44.65709" lon="6.87669">
        <ele>2664</ele>
        <time>2016-12-26T14:02:41Z</time>
      </trkpt>
      <trkpt lat="44.65724" lon="6.8769">
        <ele>2672</ele>
        <time>2016-12-26T14:04:41Z</time>
      </trkpt>
      <trkpt lat="44.65717" lon="6.87706">
        <ele>2675</ele>
        <time>2016-12-26T14:06:41Z</time>
      </trkpt>
      <trkpt lat="44.65726" lon="6.87727">
        <ele>2682</ele>
        <time>2016-12-26T14:08:41Z</time>
      </trkpt>
      <trkpt lat="44.65725" lon="6.87752">
        <ele>2689</ele>
        <time>2016-12-26T14:10:41Z</time>
      </trkpt>
      <trkpt lat="44.65734" lon="6.8777">
        <ele>2694</ele>
        <time>2016-12-26T14:12:41Z</time>
      </trkpt>
      <trkpt lat="44.65719" lon="6.87808">
        <ele>2701</ele>
        <time>2016-12-26T14:14:41Z</time>
      </trkpt>
      <trkpt lat="44.65721" lon="6.87821">
        <ele>2704</ele>
        <time>2016-12-26T14:16:41Z</time>
      </trkpt>
      <trkpt lat="44.65731" lon="6.87836">
        <ele>2709</ele>
        <time>2016-12-26T14:18:41Z</time>
      </trkpt>
      <trkpt lat="44.65736" lon="6.87861">
        <ele>2716</ele>
        <time>2016-12-26T14:20:41Z</time>
      </trkpt>
      <trkpt lat="44.65733" lon="6.87873">
        <ele>2718</ele>
        <time>2016-12-26T14:22:41Z</time>
      </trkpt>
      <trkpt lat="44.65732" lon="6.87887">
        <ele>2722</ele>
        <time>2016-12-26T14:24:41Z</time>
      </trkpt>
      <trkpt lat="44.65757" lon="6.87919">
        <ele>2735</ele>
        <time>2016-12-26T14:26:41Z</time>
      </trkpt>
      <trkpt lat="44.6576" lon="6.8794">
        <ele>2739</ele>
        <time>2016-12-26T14:28:41Z</time>
      </trkpt>
      <trkpt lat="44.65767" lon="6.87946">
        <ele>2741</ele>
        <time>2016-12-26T14:30:41Z</time>
      </trkpt>
      <trkpt lat="44.65772" lon="6.87964">
        <ele>2745</ele>
        <time>2016-12-26T14:32:41Z</time>
      </trkpt>
      <trkpt lat="44.65778" lon="6.87977">
        <ele>2749</ele>
        <time>2016-12-26T14:34:41Z</time>
      </trkpt>
      <trkpt lat="44.65789" lon="6.87968">
        <ele>2749</ele>
        <time>2016-12-26T14:36:41Z</time>
      </trkpt>
      <trkpt lat="44.65839" lon="6.87985">
        <ele>2763</ele>
        <time>2016-12-26T14:38:41Z</time>
      </trkpt>
      <trkpt lat="44.65847" lon="6.87993">
        <ele>2767</ele>
        <time>2016-12-26T14:40:41Z</time>
      </trkpt>
      <trkpt lat="44.65839" lon="6.88026">
        <ele>2773</ele>
        <time>2016-12-26T14:42:41Z</time>
      </trkpt>
      <trkpt lat="44.65849" lon="6.88028">
        <ele>2776</ele>
        <time>2016-12-26T14:44:41Z</time>
      </trkpt>
      <trkpt lat="44.65861" lon="6.88034">
        <ele>2781</ele>
        <time>2016-12-26T14:46:41Z</time>
      </trkpt>
      <trkpt lat="44.6586" lon="6.88072">
        <ele>2790</ele>
        <time>2016-12-26T14:48:41Z</time>
      </trkpt>
      <trkpt lat="44.6589" lon="6.88077">
        <ele>2798</ele>
        <time>2016-12-26T14:50:41Z</time>
      </trkpt>
      <trkpt lat="44.65892" lon="6.88102">
        <ele>2805</ele>
        <time>2016-12-26T14:52:41Z</time>
      </trkpt>
      <trkpt lat="44.65894" lon="6.88112">
        <ele>2808</ele>
        <time>2016-12-26T14:54:41Z</time>
      </trkpt>
      <trkpt lat="44.65904" lon="6.88119">
        <ele>2812</ele>
        <time>2016-12-26T14:56:41Z</time>
      </trkpt>
      <trkpt lat="44.65911" lon="6.88117">
        <ele>2813</ele>
        <time>2016-12-26T14:58:41Z</time>
      </trkpt>
      <trkpt lat="44.6591" lon="6.88154">
        <ele>2822</ele>
        <time>2016-12-26T15:00:41Z</time>
      </trkpt>
      <trkpt lat="44.65934" lon="6.88162">
        <ele>2832</ele>
        <time>2016-12-26T15:02:41Z</time>
      </trkpt>
      <trkpt lat="44.65928" lon="6.88188">
        <ele>2837</ele>
        <time>2016-12-26T15:04:41Z</time>
      </trkpt>
      <trkpt lat="44.65947" lon="6.88191">
        <ele>2844</ele>
        <time>2016-12-26T15:06:41Z</time>
      </trkpt>
      <trkpt lat="44.65945" lon="6.88209">
        <ele>2849</ele>
        <time>2016-12-26T15:08:41Z</time>
      </trkpt>
      <trkpt lat="44.65967" lon="6.8822">
        <ele>2858</ele>
        <time>2016-12-26T15:10:41Z</time>
      </trkpt>
      <trkpt lat="44.65967" lon="6.88234">
        <ele>2862</ele>
        <time>2016-12-26T15:12:41Z</time>
      </trkpt>
      <trkpt lat="44.65983" lon="6.88239">
        <ele>2868</ele>
        <time>2016-12-26T15:14:41Z</time>
      </trkpt>
      <trkpt lat="44.65985" lon="6.88263">
        <ele>2875</ele>
        <time>2016-12-26T15:16:41Z</time>
      </trkpt>
      <trkpt lat="44.66011" lon="6.88259">
        <ele>2881</ele>
        <time>2016-12-26T15:18:41Z</time>
      </trkpt>
      <trkpt lat="44.66015" lon="6.88306">
        <ele>2895</ele>
        <time>2016-12-26T15:20:41Z</time>
      </trkpt>
      <trkpt lat="44.66041" lon="6.88307">
        <ele>2903</ele>
        <time>2016-12-26T15:22:41Z</time>
      </trkpt>
      <trkpt lat="44.66046" lon="6.88315">
        <ele>2907</ele>
        <time>2016-12-26T15:24:41Z</time>
      </trkpt>
      <trkpt lat="44.66046" lon="6.88346">
        <ele>2915</ele>
        <time>2016-12-26T15:26:41Z</time>
      </trkpt>
      <trkpt lat="44.66064" lon="6.88343">
        <ele>2919</ele>
        <time>2016-12-26T15:28:41Z</time>
      </trkpt>
      <trkpt lat="44.66067" lon="6.88353">
        <ele>2922</ele>
        <time>2016-12-26T15:30:41Z</time>
      </trkpt>
      <trkpt lat="44.66057" lon="6.88392">
        <ele>2929</ele>
        <time>2016-12-26T15:32:41Z</time>
      </trkpt>
      <trkpt lat="44.66084" lon="6.88399">
        <ele>2937</ele>
        <time>2016-12-26T15:34:41Z</time>
      </trkpt>
      <trkpt lat="44.6609" lon="6.88404">
        <ele>2940</ele>
        <time>2016-12-26T15:36:41Z</time>
      </trkpt>
      <trkpt lat="44.66076" lon="6.88445">
        <ele>2948</ele>
        <time>2016-12-26T15:38:41Z</time>
      </trkpt>
      <trkpt lat="44.66085" lon="6.88453">
        <ele>2953</ele>
        <time>2016-12-26T15:40:41Z</time>
      </trkpt>
      <trkpt lat="44.66078" lon="6.88471">
        <ele>2958</ele>
        <time>2016-12-26T15:42:41Z</time>
      </trkpt>
      <trkpt lat="44.66091" lon="6.88477">
        <ele>2962</ele>
        <time>2016-12-26T15:44:41Z</time>
      </trkpt>
      <trkpt lat="44.66085" lon="6.88499">
        <ele>2968</ele>
        <time>2016-12-26T15:46:41Z</time>
      </trkpt>
      <trkpt lat="44.661" lon="6.88502">
        <ele>2973</ele>
        <time>2016-12-26T15:48:41Z</time>
      </trkpt>
      <trkpt lat="44.6609" lon="6.88524">
        <ele>2980</ele>
        <time>2016-12-26T15:50:41Z</time>
      </trkpt>
      <trkpt lat="44.66108" lon="6.88532">
        <ele>2987</ele>
        <time>2016-12-26T15:52:41Z</time>
      </trkpt>
      <trkpt lat="44.66097" lon="6.88553">
        <ele>2993</ele>
        <time>2016-12-26T15:54:41Z</time>
      </trkpt>
      <trkpt lat="44.66124" lon="6.88563">
        <ele>3001</ele>
        <time>2016-12-26T15:56:41Z</time>
      </trkpt>
      <trkpt lat="44.66106" lon="6.88595">
        <ele>3010</ele>
        <time>2016-12-26T15:58:41Z</time>
      </trkpt>
      <trkpt lat="44.66118" lon="6.88596">
        <ele>3012</ele>
        <time>2016-12-26T16:00:41Z</time>
      </trkpt>
      <trkpt lat="44.66113" lon="6.88612">
        <ele>3017</ele>
        <time>2016-12-26T16:02:41Z</time>
      </trkpt>
      <trkpt lat="44.66131" lon="6.88619">
        <ele>3020</ele>
        <time>2016-12-26T16:04:41Z</time>
      </trkpt>
      <trkpt lat="44.66134" lon="6.88624">
        <ele>3022</ele>
        <time>2016-12-26T16:06:41Z</time>
      </trkpt>
      <trkpt lat="44.66127" lon="6.88641">
        <ele>3026</ele>
        <time>2016-12-26T16:08:41Z</time>
      </trkpt>
      <trkpt lat="44.66154" lon="6.88631">
        <ele>3024</ele>
        <time>2016-12-26T16:10:41Z</time>
      </trkpt>
      <trkpt lat="44.66158" lon="6.8864">
        <ele>3026</ele>
        <time>2016-12-26T16:12:41Z</time>
      </trkpt>
      <trkpt lat="44.66157" lon="6.88652">
        <ele>3029</ele>
        <time>2016-12-26T16:14:41Z</time>
      </trkpt>
      <trkpt lat="44.66165" lon="6.88655">
        <ele>3030</ele>
        <time>2016-12-26T16:16:41Z</time>
      </trkpt>
      <trkpt lat="44.6616" lon="6.88662">
        <ele>3031</ele>
        <time>2016-12-26T16:18:41Z</time>
      </trkpt>
      <trkpt lat="44.6617" lon="6.88669">
        <ele>3031</ele>
        <time>2016-12-26T16:20:41Z</time>
      </trkpt>
      <trkpt lat="44.66168" lon="6.88686">
        <ele>3033</ele>
        <time>2016-12-26T16:22:41Z</time>
      </trkpt>
      <trkpt lat="44.66152" lon="6.88738">
        <ele>3041</ele>
        <time>2016-12-26T16:24:41Z</time>
      </trkpt>
      <trkpt lat="44.66143" lon="6.88748">
        <ele>3044</ele>
        <time>2016-12-26T16:26:41Z</time>
      </trkpt>
      <trkpt lat="44.66136" lon="6.88756">
        <ele>3046</ele>
        <time>2016-12-26T16:28:41Z</time>
      </trkpt>
      <trkpt lat="44.66128" lon="6.88765">
        <ele>3047</ele>
        <time>2016-12-26T16:30:41Z</time>
      </trkpt>
      <trkpt lat="44.66118" lon="6.88765">
        <ele>3050</ele>
        <time>2016-12-26T16:32:41Z</time>
      </trkpt>
      <trkpt lat="44.66126" lon="6.88804">
        <ele>3048</ele>
        <time>2016-12-26T16:34:41Z</time>
      </trkpt>
      <trkpt lat="44.66115" lon="6.88799">
        <ele>3051</ele>
        <time>2016-12-26T16:36:41Z</time>
      </trkpt>
      <trkpt lat="44.6611" lon="6.88782">
        <ele>3052</ele>
        <time>2016-12-26T16:38:41Z</time>
      </trkpt>
      <trkpt lat="44.66097" lon="6.88779">
        <ele>3055</ele>
        <time>2016-12-26T16:40:41Z</time>
      </trkpt>
      <trkpt lat="44.66091" lon="6.88762">
        <ele>3055</ele>
        <time>2016-12-26T16:42:41Z</time>
      </trkpt>
      <trkpt lat="44.66081" lon="6.88755">
        <ele>3055</ele>
        <time>2016-12-26T16:44:41Z</time>
      </trkpt>
      <trkpt lat="44.66075" lon="6.88751">
        <ele>3052</ele>
        <time>2016-12-26T16:46:41Z</time>
      </trkpt>
      <trkpt lat="44.66066" lon="6.88749">
        <ele>3048</ele>
        <time>2016-12-26T16:48:41Z</time>
      </trkpt>
      <trkpt lat="44.66051" lon="6.88697">
        <ele>3031</ele>
        <time>2016-12-26T16:50:41Z</time>
      </trkpt>
      <trkpt lat="44.66042" lon="6.8869">
        <ele>3026</ele>
        <time>2016-12-26T16:52:41Z</time>
      </trkpt>
      <trkpt lat="44.66046" lon="6.88682">
        <ele>3026</ele>
        <time>2016-12-26T16:54:41Z</time>
      </trkpt>
      <trkpt lat="44.66046" lon="6.88669">
        <ele>3024</ele>
        <time>2016-12-26T16:56:41Z</time>
      </trkpt>
      <trkpt lat="44.66062" lon="6.88645">
        <ele>3022</ele>
        <time>2016-12-26T16:58:41Z</time>
      </trkpt>
      <trkpt lat="44.66062" lon="6.88635">
        <ele>3018</ele>
        <time>2016-12-26T17:00:41Z</time>
      </trkpt>
      <trkpt lat="44.6605" lon="6.88587">
        <ele>2999</ele>
        <time>2016-12-26T17:02:41Z</time>
      </trkpt>
      <trkpt lat="44.66043" lon="6.88581">
        <ele>2995</ele>
        <time>2016-12-26T17:04:41Z</time>
      </trkpt>
      <trkpt lat="44.6604" lon="6.88573">
        <ele>2992</ele>
        <time>2016-12-26T17:06:41Z</time>
      </trkpt>
      <trkpt lat="44.66041" lon="6.88554">
        <ele>2985</ele>
        <time>2016-12-26T17:08:41Z</time>
      </trkpt>
      <trkpt lat="44.66032" lon="6.88548">
        <ele>2981</ele>
        <time>2016-12-26T17:10:41Z</time>
      </trkpt>
      <trkpt lat="44.66019" lon="6.88544">
        <ele>2978</ele>
        <time>2016-12-26T17:12:41Z</time>
      </trkpt>
      <trkpt lat="44.66023" lon="6.88532">
        <ele>2974</ele>
        <time>2016-12-26T17:14:41Z</time>
      </trkpt>
      <trkpt lat="44.66013" lon="6.88495">
        <ele>2960</ele>
        <time>2016-12-26T17:16:41Z</time>
      </trkpt>
      <trkpt lat="44.66006" lon="6.88493">
        <ele>2959</ele>
        <time>2016-12-26T17:18:41Z</time>
      </trkpt>
      <trkpt lat="44.65995" lon="6.88435">
        <ele>2933</ele>
        <time>2016-12-26T17:20:41Z</time>
      </trkpt>
      <trkpt lat="44.65997" lon="6.88427">
        <ele>2930</ele>
        <time>2016-12-26T17:22:41Z</time>
      </trkpt>
      <trkpt lat="44.65997" lon="6.88417">
        <ele>2926</ele>
        <time>2016-12-26T17:24:41Z</time>
      </trkpt>
      <trkpt lat="44.65988" lon="6.8841">
        <ele>2923</ele>
        <time>2016-12-26T17:26:41Z</time>
      </trkpt>
      <trkpt lat="44.65982" lon="6.88375">
        <ele>2910</ele>
        <time>2016-12-26T17:28:41Z</time>
      </trkpt>
      <trkpt lat="44.65942" lon="6.88361">
        <ele>2899</ele>
        <time>2016-12-26T17:30:41Z</time>
      </trkpt>
      <trkpt lat="44.65935" lon="6.88354">
        <ele>2896</ele>
        <time>2016-12-26T17:32:41Z</time>
      </trkpt>
      <trkpt lat="44.65925" lon="6.88307">
        <ele>2876</ele>
        <time>2016-12-26T17:34:41Z</time>
      </trkpt>
      <trkpt lat="44.65912" lon="6.88257">
        <ele>2856</ele>
        <time>2016-12-26T17:36:41Z</time>
      </trkpt>
      <trkpt lat="44.6591" lon="6.88249">
        <ele>2852</ele>
        <time>2016-12-26T17:38:41Z</time>
      </trkpt>
      <trkpt lat="44.65901" lon="6.8824">
        <ele>2848</ele>
        <time>2016-12-26T17:40:41Z</time>
      </trkpt>
      <trkpt lat="44.65901" lon="6.88216">
        <ele>2840</ele>
        <time>2016-12-26T17:42:41Z</time>
      </trkpt>
      <trkpt lat="44.65894" lon="6.88207">
        <ele>2835</ele>
        <time>2016-12-26T17:44:41Z</time>
      </trkpt>
      <trkpt lat="44.65883" lon="6.8821">
        <ele>2834</ele>
        <time>2016-12-26T17:46:41Z</time>
      </trkpt>
      <trkpt lat="44.65881" lon="6.88198">
        <ele>2830</ele>
        <time>2016-12-26T17:48:41Z</time>
      </trkpt>
      <trkpt lat="44.65877" lon="6.88187">
        <ele>2825</ele>
        <time>2016-12-26T17:50:41Z</time>
      </trkpt>
      <trkpt lat="44.65867" lon="6.88185">
        <ele>2822</ele>
        <time>2016-12-26T17:52:41Z</time>
      </trkpt>
      <trkpt lat="44.65861" lon="6.88188">
        <ele>2822</ele>
        <time>2016-12-26T17:54:41Z</time>
      </trkpt>
      <trkpt lat="44.65843" lon="6.8815">
        <ele>2806</ele>
        <time>2016-12-26T17:56:41Z</time>
      </trkpt>
      <trkpt lat="44.6583" lon="6.88138">
        <ele>2800</ele>
        <time>2016-12-26T17:58:41Z</time>
      </trkpt>
      <trkpt lat="44.6582" lon="6.88136">
        <ele>2797</ele>
        <time>2016-12-26T18:00:41Z</time>
      </trkpt>
      <trkpt lat="44.65811" lon="6.88138">
        <ele>2795</ele>
        <time>2016-12-26T18:02:41Z</time>
      </trkpt>
      <trkpt lat="44.65801" lon="6.88134">
        <ele>2792</ele>
        <time>2016-12-26T18:04:41Z</time>
      </trkpt>
      <trkpt lat="44.65798" lon="6.8812">
        <ele>2787</ele>
        <time>2016-12-26T18:06:41Z</time>
      </trkpt>
      <trkpt lat="44.65786" lon="6.88095">
        <ele>2777</ele>
        <time>2016-12-26T18:08:41Z</time>
      </trkpt>
      <trkpt lat="44.6579" lon="6.88087">
        <ele>2776</ele>
        <time>2016-12-26T18:10:41Z</time>
      </trkpt>
      <trkpt lat="44.65783" lon="6.88072">
        <ele>2770</ele>
        <time>2016-12-26T18:12:41Z</time>
      </trkpt>
      <trkpt lat="44.65773" lon="6.88071">
        <ele>2767</ele>
        <time>2016-12-26T18:14:41Z</time>
      </trkpt>
      <trkpt lat="44.65769" lon="6.88056">
        <ele>2763</ele>
        <time>2016-12-26T18:16:41Z</time>
      </trkpt>
      <trkpt lat="44.65765" lon="6.88049">
        <ele>2761</ele>
        <time>2016-12-26T18:18:41Z</time>
      </trkpt>
      <trkpt lat="44.65756" lon="6.88041">
        <ele>2757</ele>
        <time>2016-12-26T18:20:41Z</time>
      </trkpt>
      <trkpt lat="44.65738" lon="6.8799">
        <ele>2743</ele>
        <time>2016-12-26T18:22:41Z</time>
      </trkpt>
      <trkpt lat="44.65743" lon="6.87901">
        <ele>2727</ele>
        <time>2016-12-26T18:24:41Z</time>
      </trkpt>
      <trkpt lat="44.65749" lon="6.87853">
        <ele>2717</ele>
        <time>2016-12-26T18:26:41Z</time>
      </trkpt>
      <trkpt lat="44.6574" lon="6.87831">
        <ele>2710</ele>
        <time>2016-12-26T18:28:41Z</time>
      </trkpt>
      <trkpt lat="44.6574" lon="6.87821">
        <ele>2707</ele>
        <time>2016-12-26T18:30:41Z</time>
      </trkpt>
      <trkpt lat="44.65746" lon="6.87812">
        <ele>2706</ele>
        <time>2016-12-26T18:32:41Z</time>
      </trkpt>
      <trkpt lat="44.65741" lon="6.87768">
        <ele>2695</ele>
        <time>2016-12-26T18:34:41Z</time>
      </trkpt>
      <trkpt lat="44.65742" lon="6.87752">
        <ele>2691</ele>
        <time>2016-12-26T18:36:41Z</time>
      </trkpt>
      <trkpt lat="44.65738" lon="6.87743">
        <ele>2688</ele>
        <time>2016-12-26T18:38:41Z</time>
      </trkpt>
      <trkpt lat="44.65725" lon="6.87732">
        <ele>2683</ele>
        <time>2016-12-26T18:40:41Z</time>
      </trkpt>
      <trkpt lat="44.65717" lon="6.87732">
        <ele>2682</ele>
        <time>2016-12-26T18:42:41Z</time>
      </trkpt>
      <trkpt lat="44.65695" lon="6.87736">
        <ele>2680</ele>
        <time>2016-12-26T18:44:41Z</time>
      </trkpt>
      <trkpt lat="44.65665" lon="6.87722">
        <ele>2672</ele>
        <time>2016-12-26T18:46:41Z</time>
      </trkpt>
      <trkpt lat="44.65638" lon="6.87683">
        <ele>2658</ele>
        <time>2016-12-26T18:48:41Z</time>
      </trkpt>
      <trkpt lat="44.65638" lon="6.87674">
        <ele>2656</ele>
        <time>2016-12-26T18:50:41Z</time>
      </trkpt>
      <trkpt lat="44.65628" lon="6.87667">
        <ele>2652</ele>
        <time>2016-12-26T18:52:41Z</time>
      </trkpt>
      <trkpt lat="44.65627" lon="6.87659">
        <ele>2650</ele>
        <time>2016-12-26T18:54:41Z</time>
      </trkpt>
      <trkpt lat="44.65628" lon="6.87647">
        <ele>2648</ele>
        <time>2016-12-26T18:56:41Z</time>
      </trkpt>
      <trkpt lat="44.6562" lon="6.87635">
        <ele>2644</ele>
        <time>2016-12-26T18:58:41Z</time>
      </trkpt>
      <trkpt lat="44.65616" lon="6.87601">
        <ele>2635</ele>
        <time>2016-12-26T19:00:41Z</time>
      </trkpt>
      <trkpt lat="44.65604" lon="6.87546">
        <ele>2622</ele>
        <time>2016-12-26T19:02:41Z</time>
      </trkpt>
      <trkpt lat="44.65606" lon="6.87537">
        <ele>2620</ele>
        <time>2016-12-26T19:04:41Z</time>
      </trkpt>
      <trkpt lat="44.65591" lon="6.87493">
        <ele>2610</ele>
        <time>2016-12-26T19:06:41Z</time>
      </trkpt>
      <trkpt lat="44.65578" lon="6.87438">
        <ele>2597</ele>
        <time>2016-12-26T19:08:41Z</time>
      </trkpt>
      <trkpt lat="44.65582" lon="6.87416">
        <ele>2592</ele>
        <time>2016-12-26T19:10:41Z</time>
      </trkpt>
      <trkpt lat="44.65576" lon="6.87384">
        <ele>2585</ele>
        <time>2016-12-26T19:12:41Z</time>
      </trkpt>
      <trkpt lat="44.65584" lon="6.87363">
        <ele>2581</ele>
        <time>2016-12-26T19:14:41Z</time>
      </trkpt>
      <trkpt lat="44.65549" lon="6.87308">
        <ele>2572</ele>
        <time>2016-12-26T19:16:41Z</time>
      </trkpt>
      <trkpt lat="44.65554" lon="6.87265">
        <ele>2568</ele>
        <time>2016-12-26T19:18:41Z</time>
      </trkpt>
      <trkpt lat="44.65561" lon="6.87261">
        <ele>2567</ele>
        <time>2016-12-26T19:20:41Z</time>
      </trkpt>
      <trkpt lat="44.65563" lon="6.87226">
        <ele>2562</ele>
        <time>2016-12-26T19:22:41Z</time>
      </trkpt>
      <trkpt lat="44.65556" lon="6.87143">
        <ele>2549</ele>
        <time>2016-12-26T19:24:41Z</time>
      </trkpt>
      <trkpt lat="44.65539" lon="6.87021">
        <ele>2530</ele>
        <time>2016-12-26T19:26:41Z</time>
      </trkpt>
      <trkpt lat="44.65543" lon="6.86991">
        <ele>2526</ele>
        <time>2016-12-26T19:28:41Z</time>
      </trkpt>
      <trkpt lat="44.65536" lon="6.86947">
        <ele>2518</ele>
        <time>2016-12-26T19:30:41Z</time>
      </trkpt>
      <trkpt lat="44.65537" lon="6.86904">
        <ele>2511</ele>
        <time>2016-12-26T19:32:41Z</time>
      </trkpt>
      <trkpt lat="44.65534" lon="6.86867">
        <ele>2506</ele>
        <time>2016-12-26T19:34:41Z</time>
      </trkpt>
      <trkpt lat="44.65522" lon="6.868">
        <ele>2495</ele>
        <time>2016-12-26T19:36:41Z</time>
      </trkpt>
      <trkpt lat="44.65507" lon="6.8677">
        <ele>2489</ele>
        <time>2016-12-26T19:38:41Z</time>
      </trkpt>
      <trkpt lat="44.65488" lon="6.86738">
        <ele>2485</ele>
        <time>2016-12-26T19:40:41Z</time>
      </trkpt>
      <trkpt lat="44.65463" lon="6.86715">
        <ele>2482</ele>
        <time>2016-12-26T19:42:41Z</time>
      </trkpt>
      <trkpt lat="44.6544" lon="6.86698">
        <ele>2478</ele>
        <time>2016-12-26T19:44:41Z</time>
      </trkpt>
      <trkpt lat="44.65409" lon="6.86689">
        <ele>2475</ele>
        <time>2016-12-26T19:46:41Z</time>
      </trkpt>
      <trkpt lat="44.65385" lon="6.86665">
        <ele>2472</ele>
        <time>2016-12-26T19:48:41Z</time>
      </trkpt>
      <trkpt lat="44.65378" lon="6.8666">
        <ele>2472</ele>
        <time>2016-12-26T19:50:41Z</time>
      </trkpt>
      <trkpt lat="44.65361" lon="6.86661">
        <ele>2471</ele>
        <time>2016-12-26T19:52:41Z</time>
      </trkpt>
      <trkpt lat="44.65357" lon="6.86666">
        <ele>2472</ele>
        <time>2016-12-26T19:54:41Z</time>
      </trkpt>
      <trkpt lat="44.6535" lon="6.86663">
        <ele>2471</ele>
        <time>2016-12-26T19:56:41Z</time>
      </trkpt>
      <trkpt lat="44.65331" lon="6.86597">
        <ele>2461</ele>
        <time>2016-12-26T19:58:41Z</time>
      </trkpt>
      <trkpt lat="44.65342" lon="6.86578">
        <ele>2460</ele>
        <time>2016-12-26T20:00:41Z</time>
      </trkpt>
      <trkpt lat="44.6534" lon="6.86534">
        <ele>2450</ele>
        <time>2016-12-26T20:02:41Z</time>
      </trkpt>
      <trkpt lat="44.65332" lon="6.86524">
        <ele>2446</ele>
        <time>2016-12-26T20:04:41Z</time>
      </trkpt>
      <trkpt lat="44.65329" lon="6.86508">
        <ele>2442</ele>
        <time>2016-12-26T20:06:41Z</time>
      </trkpt>
      <trkpt lat="44.65327" lon="6.86499">
        <ele>2440</ele>
        <time>2016-12-26T20:08:41Z</time>
      </trkpt>
      <trkpt lat="44.65336" lon="6.86468">
        <ele>2435</ele>
        <time>2016-12-26T20:10:41Z</time>
      </trkpt>
      <trkpt lat="44.65326" lon="6.86449">
        <ele>2430</ele>
        <time>2016-12-26T20:12:41Z</time>
      </trkpt>
      <trkpt lat="44.65328" lon="6.86433">
        <ele>2427</ele>
        <time>2016-12-26T20:14:41Z</time>
      </trkpt>
      <trkpt lat="44.65309" lon="6.86403">
        <ele>2417</ele>
        <time>2016-12-26T20:16:41Z</time>
      </trkpt>
      <trkpt lat="44.65292" lon="6.86381">
        <ele>2410</ele>
        <time>2016-12-26T20:18:41Z</time>
      </trkpt>
      <trkpt lat="44.65272" lon="6.86345">
        <ele>2398</ele>
        <time>2016-12-26T20:20:41Z</time>
      </trkpt>
      <trkpt lat="44.65275" lon="6.86337">
        <ele>2396</ele>
        <time>2016-12-26T20:22:41Z</time>
      </trkpt>
      <trkpt lat="44.65264" lon="6.86313">
        <ele>2387</ele>
        <time>2016-12-26T20:24:41Z</time>
      </trkpt>
      <trkpt lat="44.65271" lon="6.86289">
        <ele>2382</ele>
        <time>2016-12-26T20:26:41Z</time>
      </trkpt>
      <trkpt lat="44.65249" lon="6.86262">
        <ele>2367</ele>
        <time>2016-12-26T20:28:41Z</time>
      </trkpt>
      <trkpt lat="44.65241" lon="6.86242">
        <ele>2361</ele>
        <time>2016-12-26T20:30:41Z</time>
      </trkpt>
      <trkpt lat="44.65223" lon="6.86221">
        <ele>2356</ele>
        <time>2016-12-26T20:32:41Z</time>
      </trkpt>
      <trkpt lat="44.65216" lon="6.86222">
        <ele>2356</ele>
        <time>2016-12-26T20:34:41Z</time>
      </trkpt>
      <trkpt lat="44.65211" lon="6.86217">
        <ele>2354</ele>
        <time>2016-12-26T20:36:41Z</time>
      </trkpt>
      <trkpt lat="44.65206" lon="6.86187">
        <ele>2347</ele>
        <time>2016-12-26T20:38:41Z</time>
      </trkpt>
      <trkpt lat="44.65199" lon="6.86157">
        <ele>2339</ele>
        <time>2016-12-26T20:40:41Z</time>
      </trkpt>
      <trkpt lat="44.65192" lon="6.86145">
        <ele>2335</ele>
        <time>2016-12-26T20:42:41Z</time>
      </trkpt>
      <trkpt lat="44.6519" lon="6.86088">
        <ele>2321</ele>
        <time>2016-12-26T20:44:41Z</time>
      </trkpt>
      <trkpt lat="44.65181" lon="6.86068">
        <ele>2312</ele>
        <time>2016-12-26T20:46:41Z</time>
      </trkpt>
      <trkpt lat="44.65159" lon="6.86096">
        <ele>2316</ele>
        <time>2016-12-26T20:48:41Z</time>
      </trkpt>
      <trkpt lat="44.65143" lon="6.86098">
        <ele>2311</ele>
        <time>2016-12-26T20:50:41Z</time>
      </trkpt>
      <trkpt lat="44.65142" lon="6.86092">
        <ele>2309</ele>
        <time>2016-12-26T20:52:41Z</time>
      </trkpt>
      <trkpt lat="44.65135" lon="6.8609">
        <ele>2306</ele>
        <time>2016-12-26T20:54:41Z</time>
      </trkpt>
      <trkpt lat="44.65126" lon="6.86094">
        <ele>2304</ele>
        <time>2016-12-26T20:56:41Z</time>
      </trkpt>
      <trkpt lat="44.6512" lon="6.8609">
        <ele>2301</ele>
        <time>2016-12-26T20:58:41Z</time>
      </trkpt>
      <trkpt lat="44.65123" lon="6.86072">
        <ele>2296</ele>
        <time>2016-12-26T21:00:41Z</time>
      </trkpt>
      <trkpt lat="44.65122" lon="6.86063">
        <ele>2292</ele>
        <time>2016-12-26T21:02:41Z</time>
      </trkpt>
      <trkpt lat="44.65085" lon="6.86085">
        <ele>2287</ele>
        <time>2016-12-26T21:04:41Z</time>
      </trkpt>
      <trkpt lat="44.65074" lon="6.86079">
        <ele>2280</ele>
        <time>2016-12-26T21:06:41Z</time>
      </trkpt>
      <trkpt lat="44.65073" lon="6.86072">
        <ele>2277</ele>
        <time>2016-12-26T21:08:41Z</time>
      </trkpt>
      <trkpt lat="44.65069" lon="6.86072">
        <ele>2275</ele>
        <time>2016-12-26T21:10:41Z</time>
      </trkpt>
      <trkpt lat="44.65073" lon="6.86059">
        <ele>2272</ele>
        <time>2016-12-26T21:12:41Z</time>
      </trkpt>
      <trkpt lat="44.6507" lon="6.8605">
        <ele>2267</ele>
        <time>2016-12-26T21:14:41Z</time>
      </trkpt>
      <trkpt lat="44.6506" lon="6.86047">
        <ele>2261</ele>
        <time>2016-12-26T21:16:41Z</time>
      </trkpt>
      <trkpt lat="44.65054" lon="6.86041">
        <ele>2256</ele>
        <time>2016-12-26T21:18:41Z</time>
      </trkpt>
      <trkpt lat="44.6505" lon="6.86029">
        <ele>2249</ele>
        <time>2016-12-26T21:20:41Z</time>
      </trkpt>
      <trkpt lat="44.65051" lon="6.86011">
        <ele>2243</ele>
        <time>2016-12-26T21:22:41Z</time>
      </trkpt>
      <trkpt lat="44.65045" lon="6.85991">
        <ele>2232</ele>
        <time>2016-12-26T21:24:41Z</time>
      </trkpt>
      <trkpt lat="44.65049" lon="6.85974">
        <ele>2228</ele>
        <time>2016-12-26T21:26:41Z</time>
      </trkpt>
      <trkpt lat="44.65037" lon="6.8597">
        <ele>2221</ele>
        <time>2016-12-26T21:28:41Z</time>
      </trkpt>
      <trkpt lat="44.65033" lon="6.85961">
        <ele>2215</ele>
        <time>2016-12-26T21:30:41Z</time>
      </trkpt>
      <trkpt lat="44.65024" lon="6.85959">
        <ele>2210</ele>
        <time>2016-12-26T21:32:41Z</time>
      </trkpt>
      <trkpt lat="44.65008" lon="6.85953">
        <ele>2201</ele>
        <time>2016-12-26T21:34:41Z</time>
      </trkpt>
      <trkpt lat="44.64997" lon="6.85958">
        <ele>2197</ele>
        <time>2016-12-26T21:36:41Z</time>
      </trkpt>
      <trkpt lat="44.64969" lon="6.85944">
        <ele>2182</ele>
        <time>2016-12-26T21:38:41Z</time>
      </trkpt>
      <trkpt lat="44.65005" lon="6.85883">
        <ele>2175</ele>
        <time>2016-12-26T21:40:41Z</time>
      </trkpt>
      <trkpt lat="44.65013" lon="6.85864">
        <ele>2171</ele>
        <time>2016-12-26T21:42:41Z</time>
      </trkpt>
      <trkpt lat="44.65013" lon="6.8583">
        <ele>2159</ele>
        <time>2016-12-26T21:44:41Z</time>
      </trkpt>
      <trkpt lat="44.65032" lon="6.85777">
        <ele>2146</ele>
        <time>2016-12-26T21:46:41Z</time>
      </trkpt>
      <trkpt lat="44.65048" lon="6.85767">
        <ele>2148</ele>
        <time>2016-12-26T21:48:41Z</time>
      </trkpt>
      <trkpt lat="44.65066" lon="6.85767">
        <ele>2153</ele>
        <time>2016-12-26T21:50:41Z</time>
      </trkpt>
      <trkpt lat="44.65084" lon="6.85775">
        <ele>2162</ele>
        <time>2016-12-26T21:52:41Z</time>
      </trkpt>
      <trkpt lat="44.65091" lon="6.85777">
        <ele>2166</ele>
        <time>2016-12-26T21:54:41Z</time>
      </trkpt>
      <trkpt lat="44.65103" lon="6.85757">
        <ele>2162</ele>
        <time>2016-12-26T21:56:41Z</time>
      </trkpt>
      <trkpt lat="44.65111" lon="6.8574">
        <ele>2159</ele>
        <time>2016-12-26T21:58:41Z</time>
      </trkpt>
      <trkpt lat="44.65122" lon="6.85692">
        <ele>2145</ele>
        <time>2016-12-26T22:00:41Z</time>
      </trkpt>
      <trkpt lat="44.65173" lon="6.85642">
        <ele>2143</ele>
        <time>2016-12-26T22:02:41Z</time>
      </trkpt>
      <trkpt lat="44.65206" lon="6.85612">
        <ele>2141</ele>
        <time>2016-12-26T22:04:41Z</time>
      </trkpt>
      <trkpt lat="44.65222" lon="6.85609">
        <ele>2145</ele>
        <time>2016-12-26T22:06:41Z</time>
      </trkpt>
      <trkpt lat="44.6523" lon="6.85611">
        <ele>2148</ele>
        <time>2016-12-26T22:08:41Z</time>
      </trkpt>
      <trkpt lat="44.65241" lon="6.85605">
        <ele>2149</ele>
        <time>2016-12-26T22:10:41Z</time>
      </trkpt>
      <trkpt lat="44.65251" lon="6.85595">
        <ele>2148</ele>
        <time>2016-12-26T22:12:41Z</time>
      </trkpt>
      <trkpt lat="44.65265" lon="6.85597">
        <ele>2155</ele>
        <time>2016-12-26T22:14:41Z</time>
      </trkpt>
      <trkpt lat="44.65267" lon="6.85586">
        <ele>2151</ele>
        <time>2016-12-26T22:16:41Z</time>
      </trkpt>
      <trkpt lat="44.65282" lon="6.85556">
        <ele>2145</ele>
        <time>2016-12-26T22:18:41Z</time>
      </trkpt>
      <trkpt lat="44.65321" lon="6.85502">
        <ele>2138</ele>
        <time>2016-12-26T22:20:41Z</time>
      </trkpt>
      <trkpt lat="44.65393" lon="6.85416">
        <ele>2130</ele>
        <time>2016-12-26T22:22:41Z</time>
      </trkpt>
      <trkpt lat="44.65416" lon="6.854">
        <ele>2132</ele>
        <time>2016-12-26T22:24:41Z</time>
      </trkpt>
      <trkpt lat="44.65432" lon="6.85378">
        <ele>2129</ele>
        <time>2016-12-26T22:26:41Z</time>
      </trkpt>
      <trkpt lat="44.65445" lon="6.85354">
        <ele>2124</ele>
        <time>2016-12-26T22:28:41Z</time>
      </trkpt>
      <trkpt lat="44.65458" lon="6.85339">
        <ele>2122</ele>
        <time>2016-12-26T22:30:41Z</time>
      </trkpt>
      <trkpt lat="44.65482" lon="6.8533">
        <ele>2123</ele>
        <time>2016-12-26T22:32:41Z</time>
      </trkpt>
      <trkpt lat="44.65501" lon="6.85307">
        <ele>2120</ele>
        <time>2016-12-26T22:34:41Z</time>
      </trkpt>
      <trkpt lat="44.6553" lon="6.85261">
        <ele>2115</ele>
        <time>2016-12-26T22:36:41Z</time>
      </trkpt>
      <trkpt lat="44.65536" lon="6.85241">
        <ele>2111</ele>
        <time>2016-12-26T22:38:41Z</time>
      </trkpt>
      <trkpt lat="44.65549" lon="6.85205">
        <ele>2107</ele>
        <time>2016-12-26T22:40:41Z</time>
      </trkpt>
      <trkpt lat="44.65517" lon="6.85164">
        <ele>2092</ele>
        <time>2016-12-26T22:42:41Z</time>
      </trkpt>
      <trkpt lat="44.65512" lon="6.85145">
        <ele>2089</ele>
        <time>2016-12-26T22:44:41Z</time>
      </trkpt>
      <trkpt lat="44.65528" lon="6.85109">
        <ele>2088</ele>
        <time>2016-12-26T22:46:41Z</time>
      </trkpt>
      <trkpt lat="44.65512" lon="6.85082">
        <ele>2082</ele>
        <time>2016-12-26T22:48:41Z</time>
      </trkpt>
      <trkpt lat="44.65485" lon="6.8506">
        <ele>2076</ele>
        <time>2016-12-26T22:50:41Z</time>
      </trkpt>
      <trkpt lat="44.65447" lon="6.85017">
        <ele>2067</ele>
        <time>2016-12-26T22:52:41Z</time>
      </trkpt>
      <trkpt lat="44.65416" lon="6.84964">
        <ele>2059</ele>
        <time>2016-12-26T22:54:41Z</time>
      </trkpt>
      <trkpt lat="44.65425" lon="6.84946">
        <ele>2059</ele>
        <time>2016-12-26T22:56:41Z</time>
      </trkpt>
      <trkpt lat="44.65439" lon="6.84894">
        <ele>2059</ele>
        <time>2016-12-26T22:58:41Z</time>
      </trkpt>
      <trkpt lat="44.65468" lon="6.84848">
        <ele>2059</ele>
        <time>2016-12-26T23:00:41Z</time>
      </trkpt>
      <trkpt lat="44.65499" lon="6.84793">
        <ele>2052</ele>
        <time>2016-12-26T23:02:41Z</time>
      </trkpt>
      <trkpt lat="44.65524" lon="6.84767">
        <ele>2051</ele>
        <time>2016-12-26T23:04:41Z</time>
      </trkpt>
      <trkpt lat="44.65549" lon="6.84736">
        <ele>2050</ele>
        <time>2016-12-26T23:06:41Z</time>
      </trkpt>
      <trkpt lat="44.65598" lon="6.84686">
        <ele>2045</ele>
        <time>2016-12-26T23:08:41Z</time>
      </trkpt>
      <trkpt lat="44.65646" lon="6.84651">
        <ele>2040</ele>
        <time>2016-12-26T23:10:41Z</time>
      </trkpt>
      <trkpt lat="44.65682" lon="6.84625">
        <ele>2037</ele>
        <time>2016-12-26T23:12:41Z</time>
      </trkpt>
      <trkpt lat="44.65714" lon="6.84606">
        <ele>2036</ele>
        <time>2016-12-26T23:14:41Z</time>
      </trkpt>
      <trkpt lat="44.65725" lon="6.84598">
        <ele>2035</ele>
        <time>2016-12-26T23:16:41Z</time>
      </trkpt>
      <trkpt lat="44.65734" lon="6.84585">
        <ele>2034</ele>
        <time>2016-12-26T23:18:41Z</time>
      </trkpt>
      <trkpt lat="44.6574" lon="6.84577">
        <ele>2033</ele>
        <time>2016-12-26T23:20:41Z</time>
      </trkpt>
      <trkpt lat="44.65754" lon="6.84559">
        <ele>2032</ele>
        <time>2016-12-26T23:22:41Z</time>
      </trkpt>
      <trkpt lat="44.65765" lon="6.84541">
        <ele>2031</ele>
        <time>2016-12-26T23:24:41Z</time>
      </trkpt>
      <trkpt lat="44.65771" lon="6.84522">
        <ele>2029</ele>
        <time>2016-12-26T23:26:41Z</time>
      </trkpt>
      <trkpt lat="44.65785" lon="6.84502">
        <ele>2027</ele>
        <time>2016-12-26T23:28:41Z</time>
      </trkpt>
      <trkpt lat="44.65797" lon="6.84486">
        <ele>2027</ele>
        <time>2016-12-26T23:30:41Z</time>
      </trkpt>
      <trkpt lat="44.65808" lon="6.84482">
        <ele>2028</ele>
        <time>2016-12-26T23:32:41Z</time>
      </trkpt>
      <trkpt lat="44.65816" lon="6.84479">
        <ele>2028</ele>
        <time>2016-12-26T23:34:41Z</time>
      </trkpt>
    </trkseg>
  </trk>
</gpx>